Northeast, South Carolina
Current Conditions -  °F | °C
As of 3:58 PM on Sunday 21 Dec 2014 (Local Time) from KMMT Reporting Station
Overcast Overcast  
Wind Chill: 53°   Ceiling: 7500
Heat Index: 53°   Visibility: 10mi
Dew Point: 40°   Wind: 7mph
Humidity: 62%   Direction: 50°NE
Pressure: 30.17"   Gusts: NA
Location:  34.0558°N, 80.8483°W
Report Text: KMMT 212058Z 05006KT 10SM BKN075 OVC200 12/05 A3017 RMK AO2A SLP220 T01170047 55011
Loading
Personal Weather Stations






























Interactive Weather Map New forecast layout! Learn more

10-Day Weather Forecast

Advertisements
Track Severe Weather on mobile